Datos. Zumaia

Actualizado: jueves, 30 octubre 2014 a las 18:32 hora oficial
Ind. climatológico: 1041A -  Altitud (m): 28
Latitud43° 18' 8'' N - Longitud2° 15' 4'' O -  PosiciónVer localización
MunicipioZumaia (Gipuzkoa) - Ver predicción
Registros - de
Fecha y hora oficial

 

Temp. (°C)

 

V. vien. (km/h)

 

Dir. viento

 

Racha (km/h)

 

Dir. racha

 

Prec. (mm)

 

Presión (hPa)

 

Tend. (hPa)

 

Humedad (%)

 

30/10/2014 18:00 21.7 0 1-CalmaCalma     0.0     77
30/10/2014 17:00 23.5 0 1-CalmaCalma 6 2-NorteNorte 0.0     63
30/10/2014 16:00 23.0 6 9-NoroesteNoroeste 14 3-NordesteNordeste 0.0     67
30/10/2014 15:00 23.2 6 3-NordesteNordeste 13 2-NorteNorte 0.0     65
30/10/2014 14:00 20.6 8 2-NorteNorte 13 3-NordesteNordeste 0.0     84
30/10/2014 13:00 21.9 0 1-CalmaCalma 8 5-SudesteSudeste 0.0     64
30/10/2014 12:00 24.8 5 6-SurSur 19 7-SudoesteSudoeste 0.0     50
30/10/2014 11:00 25.0 14 6-SurSur 30 6-SurSur 0.0     44
30/10/2014 10:00 22.5 10 7-SudoesteSudoeste 21 7-SudoesteSudoeste 0.0     54
30/10/2014 09:00 21.4 11 7-SudoesteSudoeste 23 7-SudoesteSudoeste 0.0     53
30/10/2014 08:00 20.5 12 6-SurSur 21 6-SurSur 0.0     55
30/10/2014 07:00 20.8 10 6-SurSur 19 7-SudoesteSudoeste 0.0     54
30/10/2014 06:00 21.4 11 6-SurSur 27 6-SurSur 0.0     50
30/10/2014 05:00 21.6 11 6-SurSur 30 6-SurSur 0.0     49
30/10/2014 04:00 22.2 15 6-SurSur 34 6-SurSur 0.0     46
30/10/2014 03:00 22.2 20 6-SurSur 35 6-SurSur 0.0     47
30/10/2014 02:00 20.8 10 7-SudoesteSudoeste 28 6-SurSur 0.0     58
30/10/2014 01:00 21.6 15 6-SurSur 31 6-SurSur 0.0     55
30/10/2014 00:00 20.2 13 6-SurSur 21 6-SurSur 0.0     66
29/10/2014 23:00 18.7 11 6-SurSur 20 6-SurSur 0.0     79
29/10/2014 22:00 17.6 10 6-SurSur 16 6-SurSur 0.0     89
29/10/2014 21:00 17.7 10 6-SurSur 19 6-SurSur 0.0     89
29/10/2014 20:00 18.0 12 6-SurSur 15 6-SurSur 0.0     88
29/10/2014 19:00 18.6 12 6-SurSur 15 6-SurSur 0.0     84
First Page First Page First Page Last Page
Lineas por página
Página   de  
Compartir:  
En esta página podrá acceder, en forma gráfica y en tabla, a las observaciones horarias de las últimas 24 horas, así como a los valores extremos y acumulados desde las 00 horas del día hasta la hora de actualización indicada, obtenidos en la red de estaciones de AEMET. También podrá acceder a los resúmenes diarios de estas estaciones en los últimos 7 días.

En el mapa aparecen estaciones con valor númerico y otras representadas por un punto. En las primeras, al pasar el ratón, aparece un desplegable con la información completa de la estación. Las estaciones representadas por un punto son estaciones de la red climatológica, con transmisión de datos superior a la hora, por lo que al seleccionarlas pueden no aparecer los últimos datos.

Los datos presentados han sido únicamente sometidos a controles automáticos de calidad en tiempo real, por lo que no puede garantizarse la ausencia de errores.
© AEMET. Autorizado el uso de la información y su reproducción citando a AEMET como autora de la misma.